El Molar, Spain
Current Conditions -  °F | °C
As of 11:00 PM on Friday 19 Dec 2014 (Local Time) from LETO Reporting Station
Haze Haze  
Wind Chill: 35°   Ceiling: Unl
Heat Index: 39°   Visibility: 2.8mi
Dew Point: 37°   Wind: 6mph
Humidity: 93%   Direction: 20°NNE
Pressure: 30.48"   Gusts: NA
Location:  40.73°N, 3.58°W
Report Text: LETO 192200Z 02005KT 4500 1800SE BR NSC 04/03 Q1032 NOSIG
Loading
Personal Weather Stations






























Interactive Weather Map New forecast layout! Learn more

10-Day Weather Forecast

Advertisements
Track Severe Weather on mobile